createdAt,value
2023-01-26T00:00:06.914Z,2.40
2023-01-26T00:02:34.177Z,2.40
2023-01-26T00:05:03.902Z,2.40
2023-01-26T00:07:31.113Z,2.40
2023-01-26T00:09:58.498Z,2.40
2023-01-26T00:12:26.038Z,2.40
2023-01-26T00:14:53.403Z,2.40
2023-01-26T00:17:27.667Z,2.40
2023-01-26T00:19:58.916Z,2.50
2023-01-26T00:22:28.147Z,2.50
2023-01-26T00:24:55.491Z,2.50
2023-01-26T00:27:26.718Z,2.50
2023-01-26T00:29:54.314Z,2.50
2023-01-26T00:32:21.875Z,2.50
2023-01-26T00:34:49.248Z,2.50
2023-01-26T00:37:19.138Z,2.50
2023-01-26T00:39:46.373Z,2.50
2023-01-26T00:42:14.453Z,2.50
2023-01-26T00:44:43.611Z,2.50
2023-01-26T00:47:13.795Z,2.50
2023-01-26T00:49:41.354Z,2.50
2023-01-26T00:52:08.643Z,2.50
2023-01-26T00:54:36.202Z,2.50
2023-01-26T00:57:03.973Z,2.50
2023-01-26T00:59:32.817Z,2.50
2023-01-26T01:02:02.815Z,2.50
2023-01-26T01:04:31.638Z,2.50
2023-01-26T01:06:59.374Z,2.50
2023-01-26T01:09:26.930Z,2.50
2023-01-26T01:11:54.231Z,2.40
2023-01-26T01:14:21.352Z,2.50
2023-01-26T01:16:48.537Z,2.50
2023-01-26T01:19:21.221Z,2.50
2023-01-26T01:21:48.887Z,2.50
2023-01-26T01:24:16.467Z,2.50
2023-01-26T01:26:43.785Z,2.50
2023-01-26T01:29:14.767Z,2.50
2023-01-26T01:31:43.429Z,2.50
2023-01-26T01:34:10.935Z,2.50
2023-01-26T01:36:41.585Z,2.50
2023-01-26T01:39:08.861Z,2.50
2023-01-26T01:41:36.226Z,2.50
2023-01-26T01:44:21.841Z,2.50
2023-01-26T01:46:54.070Z,2.50
2023-01-26T01:49:30.628Z,2.50
2023-01-26T01:52:07.294Z,2.50
2023-01-26T01:55:08.575Z,2.50
2023-01-26T01:58:00.470Z,2.50
2023-01-26T02:00:28.606Z,2.50
2023-01-26T02:03:12.467Z,2.50
2023-01-26T02:05:45.758Z,2.50
2023-01-26T02:08:16.182Z,2.50
2023-01-26T02:10:49.690Z,2.50
2023-01-26T02:13:22.744Z,2.50
2023-01-26T02:15:51.941Z,2.50
2023-01-26T02:18:19.667Z,2.50
2023-01-26T02:21:00.620Z,2.50
2023-01-26T02:24:09.964Z,2.50
2023-01-26T02:26:38.792Z,2.50
2023-01-26T02:29:11.443Z,2.50
2023-01-26T02:31:41.574Z,2.50
2023-01-26T02:34:08.969Z,2.50
2023-01-26T02:36:36.337Z,2.50
2023-01-26T02:39:12.335Z,2.50
2023-01-26T02:41:59.312Z,2.50
2023-01-26T02:44:28.186Z,2.50
2023-01-26T02:46:55.431Z,2.60
2023-01-26T02:49:40.806Z,2.60
2023-01-26T02:52:08.719Z,2.60
2023-01-26T02:54:54.549Z,2.60
2023-01-26T02:57:21.994Z,2.60
2023-01-26T02:59:49.386Z,2.60
2023-01-26T03:02:16.807Z,2.60
2023-01-26T03:04:44.491Z,2.60
2023-01-26T03:07:11.704Z,2.60
2023-01-26T03:09:39.016Z,2.60
2023-01-26T03:12:06.777Z,2.60
2023-01-26T03:14:34.130Z,2.70
2023-01-26T03:17:01.328Z,2.70
2023-01-26T03:19:47.214Z,2.70
2023-01-26T03:22:33.141Z,2.70
2023-01-26T03:25:18.975Z,2.70
2023-01-26T03:27:49.251Z,2.70
2023-01-26T03:30:19.977Z,2.70
2023-01-26T03:32:47.208Z,2.70
2023-01-26T03:35:16.259Z,2.80
2023-01-26T03:37:46.731Z,2.80
2023-01-26T03:40:33.579Z,2.80
2023-01-26T03:43:29.135Z,2.80
2023-01-26T03:46:14.927Z,2.80
2023-01-26T03:49:00.673Z,2.80
2023-01-26T03:51:46.956Z,2.90
2023-01-26T03:54:32.862Z,2.80
2023-01-26T03:57:00.124Z,2.90
2023-01-26T03:59:39.461Z,2.90
2023-01-26T04:02:33.597Z,2.90
2023-01-26T04:05:19.681Z,2.90
2023-01-26T04:08:05.735Z,2.90
2023-01-26T04:10:38.463Z,2.90
2023-01-26T04:13:24.496Z,2.90
2023-01-26T04:16:10.284Z,2.90
2023-01-26T04:18:59.178Z,2.90
2023-01-26T04:21:30.268Z,2.90
2023-01-26T04:23:58.623Z,2.90
2023-01-26T04:26:35.204Z,2.90
2023-01-26T04:29:07.377Z,2.90
2023-01-26T04:31:35.156Z,2.90
2023-01-26T04:34:04.884Z,2.90
2023-01-26T04:36:33.213Z,3.00
2023-01-26T04:39:01.017Z,3.00
2023-01-26T04:41:31.246Z,3.00
2023-01-26T04:43:59.594Z,3.00
2023-01-26T04:46:27.047Z,3.00
2023-01-26T04:48:54.509Z,3.00
2023-01-26T04:51:23.137Z,3.00
2023-01-26T04:53:51.734Z,3.00
2023-01-26T04:56:29.410Z,3.00
2023-01-26T04:59:00.553Z,3.00
2023-01-26T05:01:28.664Z,3.00
2023-01-26T05:03:56.699Z,3.10
2023-01-26T05:06:23.937Z,3.10
2023-01-26T05:08:51.247Z,3.10
2023-01-26T05:11:18.634Z,3.10
2023-01-26T05:13:47.608Z,3.10
2023-01-26T05:16:15.181Z,3.10
2023-01-26T05:18:42.919Z,3.10
2023-01-26T05:21:14.484Z,3.20
2023-01-26T05:23:41.950Z,3.20
2023-01-26T05:26:09.291Z,3.20
2023-01-26T05:28:37.371Z,3.20
2023-01-26T05:31:04.968Z,3.20
2023-01-26T05:33:32.523Z,3.20
2023-01-26T05:36:08.081Z,3.20
2023-01-26T05:38:35.943Z,3.20
2023-01-26T05:41:03.289Z,3.20
2023-01-26T05:43:31.099Z,3.20
2023-01-26T05:45:58.338Z,3.30
2023-01-26T05:48:25.526Z,3.30
2023-01-26T05:50:52.685Z,3.30
2023-01-26T05:53:20.231Z,3.30
2023-01-26T05:55:47.739Z,3.30
2023-01-26T05:58:15.070Z,3.30
2023-01-26T06:00:42.342Z,3.30
2023-01-26T06:03:09.638Z,3.30
2023-01-26T06:05:38.934Z,3.30
2023-01-26T06:08:06.486Z,3.30
2023-01-26T06:10:33.870Z,3.30
2023-01-26T06:13:01.415Z,3.30
2023-01-26T06:15:28.638Z,3.30
2023-01-26T06:17:55.888Z,3.30
2023-01-26T06:20:23.196Z,3.30
2023-01-26T06:22:52.908Z,3.30
2023-01-26T06:25:20.476Z,3.30
2023-01-26T06:27:47.681Z,3.30
2023-01-26T06:30:15.969Z,3.30
2023-01-26T06:32:43.209Z,3.30
2023-01-26T06:35:20.057Z,3.30
2023-01-26T06:37:50.721Z,3.30
2023-01-26T06:40:19.126Z,3.30
2023-01-26T06:42:50.710Z,3.30
2023-01-26T06:45:20.785Z,3.30
2023-01-26T06:47:50.548Z,3.20
2023-01-26T06:50:25.339Z,3.20
2023-01-26T06:53:26.828Z,3.20
2023-01-26T06:55:54.145Z,3.20
2023-01-26T06:58:21.482Z,3.20
2023-01-26T07:00:48.684Z,3.20
2023-01-26T07:03:15.955Z,3.10
2023-01-26T07:05:43.343Z,3.20
2023-01-26T07:08:10.643Z,3.10
2023-01-26T07:10:38.919Z,3.20
2023-01-26T07:13:06.975Z,3.10
2023-01-26T07:15:34.502Z,3.10
2023-01-26T07:18:01.751Z,3.20
2023-01-26T07:20:29.672Z,3.10
2023-01-26T07:22:56.993Z,3.10
2023-01-26T07:25:24.753Z,3.10
2023-01-26T07:27:59.722Z,3.10
2023-01-26T07:30:27.867Z,3.10
2023-01-26T07:32:55.498Z,3.10
2023-01-26T07:35:22.939Z,3.10
2023-01-26T07:37:53.246Z,3.10
2023-01-26T07:40:23.745Z,3.10
2023-01-26T07:42:51.383Z,3.10
2023-01-26T07:45:18.854Z,3.10
2023-01-26T07:47:46.249Z,3.20
2023-01-26T07:50:14.157Z,3.20
2023-01-26T07:52:42.036Z,3.20
2023-01-26T07:55:09.854Z,3.20
2023-01-26T07:57:43.475Z,3.20
2023-01-26T08:00:29.805Z,3.30
2023-01-26T08:02:57.300Z,3.20
2023-01-26T08:05:27.859Z,3.20
2023-01-26T08:08:01.669Z,3.30
2023-01-26T08:10:31.846Z,3.30
2023-01-26T08:13:02.184Z,3.30
2023-01-26T08:15:32.261Z,3.30
2023-01-26T08:18:01.100Z,3.30
2023-01-26T08:20:28.423Z,3.30
2023-01-26T08:22:56.589Z,3.30
2023-01-26T08:25:24.013Z,3.30
2023-01-26T08:27:51.422Z,3.30
2023-01-26T08:31:15.514Z,3.30
2023-01-26T08:33:43.711Z,3.40
2023-01-26T08:36:16.163Z,3.40
2023-01-26T08:38:44.115Z,3.40
2023-01-26T08:41:12.607Z,3.40
2023-01-26T08:43:40.864Z,3.40
2023-01-26T08:46:09.183Z,3.50
2023-01-26T08:48:37.751Z,3.40
2023-01-26T08:51:09.893Z,3.50
2023-01-26T08:53:38.650Z,3.50
2023-01-26T08:56:09.141Z,3.50
2023-01-26T08:58:37.428Z,3.50
2023-01-26T09:01:13.850Z,3.60
2023-01-26T09:03:42.533Z,3.60
2023-01-26T09:06:14.731Z,3.60
2023-01-26T09:08:42.710Z,3.70
2023-01-26T09:11:10.417Z,3.70
2023-01-26T09:13:39.347Z,3.70
2023-01-26T09:16:14.543Z,3.70
2023-01-26T09:18:42.069Z,3.70
2023-01-26T09:21:10.298Z,3.80
2023-01-26T09:23:38.963Z,3.80
2023-01-26T09:26:06.403Z,3.80
2023-01-26T09:28:34.671Z,3.80
2023-01-26T09:31:08.011Z,3.80
2023-01-26T09:33:35.918Z,3.80
2023-01-26T09:36:14.894Z,3.90
2023-01-26T09:38:42.957Z,3.90
2023-01-26T09:42:00.578Z,3.90
2023-01-26T09:44:36.865Z,3.90
2023-01-26T09:47:14.881Z,3.90
2023-01-26T09:49:48.248Z,3.90
2023-01-26T09:52:35.254Z,4.00
2023-01-26T09:55:19.726Z,4.00
2023-01-26T10:06:31.619Z,4.00
2023-01-26T10:09:07.797Z,4.00
2023-01-26T10:11:51.750Z,4.00
2023-01-26T10:14:35.613Z,4.00
2023-01-26T10:17:06.415Z,4.10
2023-01-26T10:19:46.197Z,4.10
2023-01-26T10:22:24.263Z,4.10
2023-01-26T10:24:53.879Z,4.20
2023-01-26T10:27:24.307Z,4.20
2023-01-26T10:29:51.753Z,4.20
2023-01-26T10:32:19.863Z,4.30
2023-01-26T10:34:50.735Z,4.30
2023-01-26T10:37:31.309Z,4.30
2023-01-26T10:40:01.453Z,4.40
2023-01-26T10:42:33.236Z,4.40
2023-01-26T10:45:24.852Z,4.40
2023-01-26T10:48:18.310Z,4.40
2023-01-26T10:50:48.323Z,4.50
2023-01-26T10:53:31.387Z,4.50
2023-01-26T10:56:15.329Z,4.50
2023-01-26T10:58:55.897Z,4.60
2023-01-26T11:01:30.053Z,4.60
2023-01-26T11:04:15.698Z,4.60
2023-01-26T11:06:43.507Z,4.60
2023-01-26T11:09:15.483Z,4.60
2023-01-26T11:11:58.795Z,4.60
2023-01-26T11:14:26.703Z,4.70
2023-01-26T11:17:17.300Z,4.70
2023-01-26T11:20:44.539Z,4.70
2023-01-26T11:23:36.380Z,4.70
2023-01-26T11:31:10.241Z,4.80
2023-01-26T11:34:28.682Z,4.80
2023-01-26T11:37:26.608Z,4.80
2023-01-26T11:40:16.335Z,4.80
2023-01-26T11:43:41.170Z,4.80
2023-01-26T11:46:21.231Z,4.80
2023-01-26T11:49:23.145Z,4.80
2023-01-26T11:52:23.963Z,4.80
2023-01-26T11:55:15.435Z,4.80
2023-01-26T11:58:15.269Z,4.90
2023-01-26T12:00:50.600Z,4.90
2023-01-26T12:03:50.645Z,4.90
2023-01-26T12:06:47.572Z,4.90
2023-01-26T12:09:22.878Z,5.00
2023-01-26T12:12:05.321Z,5.00
2023-01-26T12:14:58.609Z,5.10
2023-01-26T12:17:45.765Z,5.20
2023-01-26T12:21:00.840Z,5.20
2023-01-26T12:23:59.618Z,5.20
2023-01-26T12:26:35.596Z,5.30
2023-01-26T12:29:15.600Z,5.30
2023-01-26T12:32:17.466Z,5.30
2023-01-26T12:34:44.829Z,5.30
2023-01-26T12:37:36.480Z,5.40
2023-01-26T12:40:18.507Z,5.40
2023-01-26T12:42:57.340Z,5.50
2023-01-26T12:45:42.164Z,5.50
2023-01-26T12:48:41.060Z,5.50
2023-01-26T12:51:26.154Z,5.60
2023-01-26T12:54:38.739Z,5.60
2023-01-26T12:57:15.197Z,5.60
2023-01-26T12:59:48.055Z,5.70
2023-01-26T13:02:16.028Z,5.70
2023-01-26T13:04:48.722Z,5.70
2023-01-26T13:07:39.062Z,5.70
2023-01-26T13:10:15.625Z,5.80
2023-01-26T13:12:48.704Z,5.80
2023-01-26T13:15:20.040Z,5.80
2023-01-26T13:18:02.909Z,5.90
2023-01-26T13:20:48.799Z,5.90
2023-01-26T13:23:42.720Z,6.00
2023-01-26T13:26:47.470Z,6.00
2023-01-26T13:29:32.044Z,6.10
2023-01-26T13:32:14.511Z,6.20
2023-01-26T13:34:54.512Z,6.30
2023-01-26T13:37:38.611Z,6.30
2023-01-26T13:40:35.371Z,6.40
2023-01-26T13:44:04.371Z,6.40
2023-01-26T13:46:42.904Z,6.50
2023-01-26T13:49:39.689Z,6.60
2023-01-26T13:52:24.255Z,6.60
2023-01-26T13:54:54.873Z,6.70
2023-01-26T13:57:30.758Z,6.70
2023-01-26T14:00:01.816Z,6.80
2023-01-26T14:02:35.553Z,6.80
2023-01-26T14:05:03.546Z,6.90
2023-01-26T14:07:40.076Z,6.90
2023-01-26T14:10:15.239Z,7.00
2023-01-26T14:12:47.032Z,7.00
2023-01-26T14:15:32.879Z,7.10
2023-01-26T14:18:04.545Z,7.10
2023-01-26T14:20:39.741Z,7.20
2023-01-26T14:23:21.559Z,7.30
2023-01-26T14:26:11.732Z,7.30
2023-01-26T14:28:43.992Z,7.30
2023-01-26T14:31:25.806Z,7.40
2023-01-26T14:33:57.941Z,7.40
2023-01-26T14:36:34.204Z,7.50
2023-01-26T14:39:01.574Z,7.60
2023-01-26T14:41:32.329Z,7.60
2023-01-26T14:44:02.065Z,7.70
2023-01-26T14:46:37.119Z,7.70
2023-01-26T14:49:16.606Z,7.80
2023-01-26T14:51:57.425Z,7.90
2023-01-26T14:54:39.712Z,7.90
2023-01-26T14:57:09.599Z,8.00
2023-01-26T14:59:41.115Z,8.00
2023-01-26T15:02:20.912Z,8.00
2023-01-26T15:05:01.824Z,8.00
2023-01-26T15:07:36.963Z,8.00
2023-01-26T15:10:28.458Z,8.10
2023-01-26T15:13:31.179Z,8.10
2023-01-26T15:16:17.080Z,8.10
2023-01-26T15:18:46.022Z,8.10
2023-01-26T15:21:21.174Z,8.10
2023-01-26T15:23:53.410Z,8.10
2023-01-26T15:26:29.144Z,8.20
2023-01-26T15:29:00.671Z,8.20
2023-01-26T15:31:37.971Z,8.20
2023-01-26T15:34:06.994Z,8.20
2023-01-26T15:36:47.844Z,8.20
2023-01-26T15:39:21.993Z,8.30
2023-01-26T15:42:14.759Z,8.30
2023-01-26T15:44:44.584Z,8.30
2023-01-26T15:47:16.543Z,8.40
2023-01-26T15:49:43.916Z,8.40
2023-01-26T15:52:24.966Z,8.40
2023-01-26T15:54:54.034Z,8.40
2023-01-26T15:57:21.296Z,8.40
2023-01-26T15:59:48.489Z,8.40
2023-01-26T16:02:21.435Z,8.40
2023-01-26T16:04:48.972Z,8.40
2023-01-26T16:07:19.443Z,8.40
2023-01-26T16:09:49.040Z,8.40
2023-01-26T16:12:31.192Z,8.40
2023-01-26T16:14:59.699Z,8.40
2023-01-26T16:17:27.020Z,8.30
2023-01-26T16:19:54.197Z,8.30
2023-01-26T16:22:21.587Z,8.20
2023-01-26T16:24:48.907Z,8.20
2023-01-26T16:27:16.168Z,8.20
2023-01-26T16:29:43.404Z,8.10
2023-01-26T16:32:29.725Z,8.10
2023-01-26T16:34:57.261Z,8.00
2023-01-26T16:37:24.502Z,8.00
2023-01-26T16:39:51.797Z,7.90
2023-01-26T16:42:21.662Z,7.90
2023-01-26T16:44:49.284Z,7.90
2023-01-26T16:47:16.626Z,7.80
2023-01-26T16:49:43.781Z,7.80
2023-01-26T16:52:11.198Z,7.80
2023-01-26T17:11:16.665Z,7.60
2023-01-26T17:13:44.382Z,7.60
2023-01-26T17:16:22.559Z,7.60
2023-01-26T17:18:50.216Z,7.50
2023-01-26T17:21:19.990Z,7.50
2023-01-26T17:23:54.467Z,7.50
2023-01-26T17:26:22.821Z,7.50
2023-01-26T17:28:54.599Z,7.50
2023-01-26T17:31:23.987Z,7.50
2023-01-26T17:33:53.082Z,7.50
2023-01-26T17:36:21.295Z,7.50
2023-01-26T17:38:49.609Z,7.50
2023-01-26T17:41:17.554Z,7.50
2023-01-26T17:43:45.621Z,7.50
2023-01-26T17:46:16.565Z,7.60
2023-01-26T17:48:45.527Z,7.60
2023-01-26T17:51:21.202Z,7.60
2023-01-26T17:53:50.279Z,7.60
2023-01-26T17:56:23.924Z,7.60
2023-01-26T17:58:54.566Z,7.70
2023-01-26T18:01:24.494Z,7.70
2023-01-26T18:03:53.882Z,7.70
2023-01-26T18:06:22.220Z,7.70
2023-01-26T18:08:51.126Z,7.80
2023-01-26T18:11:18.498Z,7.90
2023-01-26T18:13:46.226Z,7.90
2023-01-26T18:16:18.493Z,8.00
2023-01-26T18:18:47.115Z,8.00
2023-01-26T18:21:24.859Z,8.10
2023-01-26T18:24:11.301Z,8.10
2023-01-26T18:26:39.404Z,8.10
2023-01-26T18:29:09.589Z,8.20
2023-01-26T18:31:43.299Z,8.20
2023-01-26T18:34:12.027Z,8.30
2023-01-26T18:36:39.709Z,8.30
2023-01-26T18:39:13.251Z,8.40
2023-01-26T18:41:43.574Z,8.40
2023-01-26T18:44:10.972Z,8.40
2023-01-26T18:46:39.005Z,8.40
2023-01-26T18:49:06.397Z,8.40
2023-01-26T18:51:36.227Z,8.50
2023-01-26T18:54:05.966Z,8.50
2023-01-26T18:56:33.924Z,8.50
2023-01-26T18:59:01.303Z,8.50
2023-01-26T19:01:28.824Z,8.50
2023-01-26T19:03:57.862Z,8.50
2023-01-26T19:06:31.026Z,8.50
2023-01-26T19:09:04.699Z,8.50
2023-01-26T19:11:38.369Z,8.60
2023-01-26T19:14:07.680Z,8.60
2023-01-26T19:16:36.079Z,8.60
2023-01-26T19:19:05.209Z,8.60
2023-01-26T19:21:34.001Z,8.60
2023-01-26T19:24:07.173Z,8.60
2023-01-26T19:26:34.670Z,8.60
2023-01-26T19:29:02.275Z,8.60
2023-01-26T19:31:30.889Z,8.60
2023-01-26T19:34:05.951Z,8.60
2023-01-26T19:36:36.883Z,8.60
2023-01-26T19:39:06.447Z,8.60
2023-01-26T19:41:34.604Z,8.60
2023-01-26T19:44:01.988Z,8.60
2023-01-26T19:46:29.156Z,8.70
2023-01-26T19:48:56.549Z,8.70
2023-01-26T19:51:26.489Z,8.70
2023-01-26T19:53:58.948Z,8.70
2023-01-26T19:56:32.686Z,8.70
2023-01-26T19:59:07.350Z,8.70
2023-01-26T20:01:34.751Z,8.70
2023-01-26T20:04:06.701Z,8.70
2023-01-26T20:06:36.344Z,8.70
2023-01-26T20:09:05.693Z,8.70
2023-01-26T20:11:34.242Z,8.70
2023-01-26T20:14:11.048Z,8.70
2023-01-26T20:16:38.848Z,8.70
2023-01-26T20:19:06.345Z,8.70
2023-01-26T20:21:35.707Z,8.70
2023-01-26T20:24:05.950Z,8.70
2023-01-26T20:26:34.067Z,8.70
2023-01-26T20:29:01.522Z,8.70
2023-01-26T20:31:28.934Z,8.70
2023-01-26T20:33:56.690Z,8.70
2023-01-26T20:36:28.030Z,8.70
2023-01-26T20:38:55.911Z,8.70
2023-01-26T20:41:30.319Z,8.70
2023-01-26T20:44:01.837Z,8.70
2023-01-26T20:46:39.715Z,8.60
2023-01-26T20:49:10.828Z,8.60
2023-01-26T20:51:42.583Z,8.70
2023-01-26T20:54:14.510Z,8.70
2023-01-26T20:56:43.164Z,8.70
2023-01-26T20:59:11.834Z,8.70
2023-01-26T21:01:39.338Z,8.70
2023-01-26T21:04:07.028Z,8.70
2023-01-26T21:06:35.682Z,8.70
2023-01-26T21:09:03.938Z,8.70
2023-01-26T21:11:32.474Z,8.70
2023-01-26T21:14:02.026Z,8.70
2023-01-26T21:16:33.447Z,8.60
2023-01-26T21:19:00.695Z,8.70
2023-01-26T21:21:28.363Z,8.60
2023-01-26T21:23:55.652Z,8.60
2023-01-26T21:26:25.580Z,8.60
2023-01-26T21:29:00.809Z,8.60
2023-01-26T21:31:33.537Z,8.60
2023-01-26T21:34:01.691Z,8.60
2023-01-26T21:36:31.553Z,8.60
2023-01-26T21:39:04.809Z,8.60
2023-01-26T21:42:08.404Z,8.60
2023-01-26T21:44:59.046Z,8.60
2023-01-26T21:47:26.474Z,8.60
2023-01-26T21:49:53.982Z,8.60
2023-01-26T21:52:39.909Z,8.60
2023-01-26T21:55:07.356Z,8.60
2023-01-26T21:57:53.356Z,8.60
2023-01-26T22:00:20.905Z,8.60
2023-01-26T22:02:48.956Z,8.60
2023-01-26T22:05:17.054Z,8.60
2023-01-26T22:07:44.317Z,8.60
2023-01-26T22:10:12.506Z,8.60
2023-01-26T22:12:40.088Z,8.60
2023-01-26T22:15:08.611Z,8.60
2023-01-26T22:17:36.051Z,8.60
2023-01-26T22:20:03.839Z,8.60
2023-01-26T22:22:31.049Z,8.60
2023-01-26T22:24:58.435Z,8.60
2023-01-26T22:27:25.951Z,8.60
2023-01-26T22:29:53.530Z,8.60
2023-01-26T22:32:20.883Z,8.60
2023-01-26T22:34:48.362Z,8.60
2023-01-26T22:37:15.748Z,8.60
2023-01-26T22:39:45.420Z,8.60
2023-01-26T22:42:12.663Z,8.60
2023-01-26T22:44:39.949Z,8.60
2023-01-26T22:47:07.345Z,8.60
2023-01-26T22:49:34.760Z,8.50
2023-01-26T22:52:02.223Z,8.60
2023-01-26T22:54:29.600Z,8.50
2023-01-26T22:56:58.890Z,8.50
2023-01-26T22:59:26.410Z,8.50
2023-01-26T23:01:53.814Z,8.50
2023-01-26T23:04:21.359Z,8.50
2023-01-26T23:07:27.985Z,8.50
2023-01-26T23:09:55.277Z,8.50
2023-01-26T23:12:22.501Z,8.50
2023-01-26T23:14:49.646Z,8.50
2023-01-26T23:17:17.001Z,8.40
2023-01-26T23:19:46.565Z,8.40
2023-01-26T23:22:13.778Z,8.40
2023-01-26T23:25:00.949Z,8.40
2023-01-26T23:27:28.198Z,8.40
2023-01-26T23:29:55.443Z,8.40
2023-01-26T23:32:22.730Z,8.40
2023-01-26T23:34:49.966Z,8.30
2023-01-26T23:37:17.279Z,8.30
2023-01-26T23:39:44.594Z,8.30
2023-01-26T23:42:12.437Z,8.30
2023-01-26T23:44:40.703Z,8.30
2023-01-26T23:47:08.077Z,8.20
2023-01-26T23:49:35.375Z,8.20
2023-01-26T23:52:05.470Z,8.20
2023-01-26T23:54:32.780Z,8.20
2023-01-26T23:56:59.993Z,8.10
2023-01-26T23:59:27.192Z,8.10
